Windsor, United Kingdom
Current Conditions -  °F | °C
As of 8:50 AM on Wednesday 28 Jan 2015 (Local Time) from EGLL Reporting Station
Light Rain Light Rain  
Wind Chill: 50°   Ceiling: 1100
Heat Index: 50°   Visibility: 6mi
Dew Point: 46°   Wind: 17mph
Humidity: 87%   Direction: 220°SW
Pressure: 29.62"   Gusts: NA
Location:  51.48°N, 0.61°W
Report Text: EGLL 280850Z 22015KT 9999 -RA SCT009 BKN011 10/08 Q1003
Loading
Personal Weather Stations






























Interactive Weather Map New forecast layout! Learn more

10-Day Weather Forecast

Advertisements
Track Severe Weather on mobile